Beaver Creek, Canada
Current Conditions -  °F | °C
As of 1:53 AM on Wednesday 22 Oct 2014 (Local Time) from PAOR Reporting Station
Broken Clouds Broken Clouds  
Wind Chill: 24°   Ceiling: 2900
Heat Index: 24°   Visibility: 10mi
Dew Point: 21°   Wind: 0mph
Humidity: 88%   Direction: NA
Pressure: 29.36"   Gusts: NA
Location:  62.36°N, 140.87°W
Report Text: PAOR 220853Z 00000KT 10SM BKN029 BKN050 M04/M06 A2936 RMK AO2 SLP974 I3000 T10441061 400221072 50001
Loading
Personal Weather Stations






























Interactive Weather Map
Tropical Storm Tracking
New forecast layout! Learn more

10-Day Weather Forecast

Advertisements
Track Severe Weather on mobile